Back to Top

Language: 

My Weather Underground Personal Weather Station Historical Data with Graphs...

Delerius Weather Station Historical Data
Daily Summary for March 24, 2017 Units:  Metric    English   Both
« Previous Day
Next Day »
Daily Weekly Monthly Yearly Custom
  High: Low: Average:
Temperature: 13.2 °C 0.7 °C 6.7 °C
Dew Point: 5.4 °C -0.9 °C 2.2 °C
Humidity: 96 % 46 % 76 %
Wind Speed: 12.9 km/h 0 km/h 5.3 km/h
Wind Gust: 25.7 km/h - -
Wind:- - ENE
Pressure: 1036.1 hPa 1028.7 hPa -
Precipitation: 0 mm    
Historical Graphs
 
 
Tabular Data for March 24, 2017
Time Temperature Dew Point Pressure Wind Wind Speed Wind Gust Humidity Rainfall Rate (Hourly) solar Conditions
00:04 4.1 °C 3.2 °C 1028.7 hPa NE 4.8 km/h 12.9 km/h 94 % 0 mm 0 W/m2
00:09 4.1 °C 3.2 °C 1028.7 hPa East 3.2 km/h 12.9 km/h 94 % 0 mm 0 W/m2
00:14 4.1 °C 3.2 °C 1028.7 hPa East 1.6 km/h 8 km/h 94 % 0 mm 0 W/m2
00:19 4.1 °C 3.2 °C 1028.7 hPa ENE 3.2 km/h 8 km/h 94 % 0 mm 0 W/m2
00:24 4.1 °C 3.2 °C 1029 hPa NE 3.2 km/h 9.7 km/h 94 % 0 mm 0 W/m2
00:34 4 °C 3.1 °C 1029 hPa NE 3.2 km/h 9.7 km/h 94 % 0 mm 0 W/m2
00:39 4 °C 3.1 °C 1029.3 hPa NE 4.8 km/h 11.3 km/h 94 % 0 mm 0 W/m2
00:44 4 °C 3.1 °C 1029 hPa NE 4.8 km/h 12.9 km/h 94 % 0 mm 0 W/m2
00:49 3.9 °C 3 °C 1029 hPa NE 6.4 km/h 16.1 km/h 94 % 0 mm 0 W/m2
00:54 3.9 °C 3 °C 1029.3 hPa NE 6.4 km/h 16.1 km/h 94 % 0 mm 0 W/m2
00:59 3.9 °C 3 °C 1029.3 hPa NE 6.4 km/h 14.5 km/h 94 % 0 mm 0 W/m2
01:04 3.9 °C 3 °C 1029.3 hPa NNE 6.4 km/h 14.5 km/h 94 % 0 mm 0 W/m2
01:09 4 °C 3.1 °C 1029.3 hPa NNE 4.8 km/h 14.5 km/h 94 % 0 mm 0 W/m2
01:14 4 °C 3.1 °C 1029.3 hPa NNE 4.8 km/h 14.5 km/h 94 % 0 mm 0 W/m2
01:19 4 °C 3.1 °C 1029.3 hPa NNE 6.4 km/h 14.5 km/h 94 % 0 mm 0 W/m2
01:24 4 °C 3.1 °C 1029.7 hPa NNE 8 km/h 14.5 km/h 94 % 0 mm 0 W/m2
01:29 4 °C 3.1 °C 1029.7 hPa NNE 6.4 km/h 12.9 km/h 94 % 0 mm 0 W/m2
01:34 3.9 °C 3 °C 1029.7 hPa NNE 6.4 km/h 12.9 km/h 94 % 0 mm 0 W/m2
01:39 3.9 °C 3 °C 1029.7 hPa North 6.4 km/h 12.9 km/h 94 % 0 mm 0 W/m2
01:44 3.8 °C 2.9 °C 1029.7 hPa NNE 6.4 km/h 14.5 km/h 94 % 0 mm 0 W/m2
01:49 3.8 °C 2.9 °C 1030 hPa NNE 6.4 km/h 14.5 km/h 94 % 0 mm 0 W/m2
01:54 3.8 °C 2.9 °C 1030 hPa NNE 6.4 km/h 14.5 km/h 94 % 0 mm 0 W/m2
01:59 3.7 °C 2.8 °C 1030 hPa NNE 8 km/h 16.1 km/h 94 % 0 mm 0 W/m2
02:04 3.6 °C 2.7 °C 1030 hPa North 8 km/h 16.1 km/h 94 % 0 mm 0 W/m2
02:09 3.5 °C 2.6 °C 1029.7 hPa North 8 km/h 14.5 km/h 94 % 0 mm 0 W/m2
02:14 3.4 °C 2.5 °C 1029.7 hPa NNE 4.8 km/h 12.9 km/h 94 % 0 mm 0 W/m2
02:19 3.3 °C 2.4 °C 1029.7 hPa NNE 3.2 km/h 11.3 km/h 94 % 0 mm 0 W/m2
02:25 3.3 °C 2.4 °C 1029.7 hPa NNE 3.2 km/h 11.3 km/h 94 % 0 mm 0 W/m2
02:30 3.2 °C 2.3 °C 1029.7 hPa NE 3.2 km/h 12.9 km/h 94 % 0 mm 0 W/m2
02:35 3.1 °C 2.2 °C 1029.7 hPa NE 3.2 km/h 12.9 km/h 94 % 0 mm 0 W/m2
02:40 3.1 °C 2.2 °C 1029.7 hPa NNE 3.2 km/h 12.9 km/h 94 % 0 mm 0 W/m2
02:45 3.1 °C 2.4 °C 1029.7 hPa NNE 4.8 km/h 11.3 km/h 95 % 0 mm 0 W/m2
02:50 3 °C 2.3 °C 1029.7 hPa NNE 4.8 km/h 12.9 km/h 95 % 0 mm 0 W/m2
02:55 3 °C 2.3 °C 1029.7 hPa NNE 6.4 km/h 12.9 km/h 95 % 0 mm 0 W/m2
03:00 2.9 °C 2.2 °C 1029.7 hPa NNE 3.2 km/h 11.3 km/h 95 % 0 mm 0 W/m2
03:05 2.8 °C 2.1 °C 1029.7 hPa NNE 1.6 km/h 11.3 km/h 95 % 0 mm 0 W/m2
03:10 2.8 °C 1.9 °C 1029.7 hPa Calm     94 % 0 mm 0 W/m2
03:15 2.7 °C 2 °C 1029.7 hPa Calm   1.6 km/h 95 % 0 mm 0 W/m2
03:20 2.6 °C 1.9 °C 1030 hPa Calm   1.6 km/h 95 % 0 mm 0 W/m2
03:25 2.5 °C 1.8 °C 1029.7 hPa Calm     95 % 0 mm 0 W/m2
03:35 2.3 °C 1.6 °C 1030 hPa Calm   4.8 km/h 95 % 0 mm 0 W/m2
03:40 2.3 °C 1.6 °C 1029.7 hPa NE 1.6 km/h 8 km/h 95 % 0 mm 0 W/m2
03:45 2.4 °C 1.7 °C 1030 hPa NE 1.6 km/h 8 km/h 95 % 0 mm 0 W/m2
03:50 2.4 °C 1.7 °C 1030 hPa ENE 1.6 km/h 8 km/h 95 % 0 mm 0 W/m2
03:55 2.3 °C 1.6 °C 1030 hPa NE 1.6 km/h 8 km/h 95 % 0 mm 0 W/m2
04:00 2.3 °C 1.6 °C 1030 hPa NNE 1.6 km/h 8 km/h 95 % 0 mm 0 W/m2
04:05 2.3 °C 1.6 °C 1030 hPa Calm   8 km/h 95 % 0 mm 0 W/m2
04:10 2.3 °C 1.6 °C 1030 hPa Calm   3.2 km/h 95 % 0 mm 0 W/m2
04:15 2.2 °C 1.5 °C 1030 hPa Calm   3.2 km/h 95 % 0 mm 0 W/m2
04:20 2.2 °C 1.5 °C 1030 hPa Calm   3.2 km/h 95 % 0 mm 0 W/m2
04:25 2.1 °C 1.4 °C 1030 hPa Calm   3.2 km/h 95 % 0 mm 0 W/m2
04:30 2.1 °C 1.4 °C 1030.4 hPa Calm   6.4 km/h 95 % 0 mm 0 W/m2
04:35 2.1 °C 1.4 °C 1030.4 hPa NNW 1.6 km/h 8 km/h 95 % 0 mm 0 W/m2
04:40 2.1 °C 1.6 °C 1030.4 hPa North 1.6 km/h 8 km/h 96 % 0 mm 0 W/m2
04:45 2.1 °C 1.6 °C 1030.4 hPa North 1.6 km/h 9.7 km/h 96 % 0 mm 0 W/m2
04:50 2.2 °C 1.6 °C 1030.4 hPa North 3.2 km/h 12.9 km/h 96 % 0 mm 0 W/m2
04:55 2.3 °C 1.7 °C 1030.4 hPa North 4.8 km/h 14.5 km/h 96 % 0 mm 0 W/m2
05:00 2.3 °C 1.7 °C 1030.7 hPa North 3.2 km/h 14.5 km/h 96 % 0 mm 0 W/m2
05:05 2.2 °C 1.6 °C 1030.7 hPa NNE 3.2 km/h 14.5 km/h 96 % 0 mm 0 W/m2
05:10 2.2 °C 1.6 °C 1030.4 hPa NNE 3.2 km/h 14.5 km/h 96 % 0 mm 0 W/m2
05:15 2.2 °C 1.5 °C 1030.7 hPa Calm   11.3 km/h 95 % 0 mm 0 W/m2
05:20 2.1 °C 1.4 °C 1030.4 hPa Calm   6.4 km/h 95 % 0 mm 0 W/m2
05:25 2.1 °C 1.4 °C 1030.4 hPa Calm   6.4 km/h 95 % 0 mm 0 W/m2
05:30 2.1 °C 1.6 °C 1030.4 hPa NNE 1.6 km/h 11.3 km/h 96 % 0 mm 0 W/m2
05:35 2.1 °C 1.6 °C 1030.4 hPa NNE 3.2 km/h 11.3 km/h 96 % 0 mm 0 W/m2
05:41 2 °C 1.4 °C 1030.4 hPa NNE 1.6 km/h 9.7 km/h 96 % 0 mm 0 W/m2
05:46 2 °C 1.4 °C 1030.4 hPa NNE 1.6 km/h 9.7 km/h 96 % 0 mm 0 W/m2
05:51 1.9 °C 1.3 °C 1030.4 hPa Calm   4.8 km/h 96 % 0 mm 5 W/m2
05:56 1.9 °C 1.2 °C 1030.7 hPa Calm   4.8 km/h 95 % 0 mm 5 W/m2
06:01 1.8 °C 1.2 °C 1030.7 hPa NNE 1.6 km/h 11.3 km/h 96 % 0 mm 5 W/m2
06:06 1.8 °C 1.2 °C 1030.7 hPa NNE 1.6 km/h 11.3 km/h 96 % 0 mm 9 W/m2
06:11 1.8 °C 1.2 °C 1030.7 hPa Calm   6.4 km/h 96 % 0 mm 14 W/m2
06:16 1.7 °C 1.1 °C 1030.7 hPa Calm   8 km/h 96 % 0 mm 19 W/m2
06:21 1.8 °C 1.2 °C 1030.7 hPa North 1.6 km/h 8 km/h 96 % 0 mm 23 W/m2
06:26 1.9 °C 1.3 °C 1031 hPa North 3.2 km/h 14.5 km/h 96 % 0 mm 26 W/m2
06:31 2.1 °C 1.6 °C 1031 hPa North 4.8 km/h 14.5 km/h 96 % 0 mm 28 W/m2
06:36 2.2 °C 1.6 °C 1031 hPa NNE 6.4 km/h 14.5 km/h 96 % 0 mm 30 W/m2
06:41 2.2 °C 1.6 °C 1031.4 hPa NNE 8 km/h 16.1 km/h 96 % 0 mm 33 W/m2
06:46 2.3 °C 1.7 °C 1031.4 hPa North 9.7 km/h 16.1 km/h 96 % 0 mm 39 W/m2
06:51 2.3 °C 1.7 °C 1031.4 hPa North 9.7 km/h 20.9 km/h 96 % 0 mm 44 W/m2
06:56 2.4 °C 1.8 °C 1031.4 hPa North 9.7 km/h 20.9 km/h 96 % 0 mm 54 W/m2
07:01 2.4 °C 1.8 °C 1031.4 hPa North 9.7 km/h 24.1 km/h 96 % 0 mm 62 W/m2
07:06 2.6 °C 2 °C 1031.4 hPa North 11.3 km/h 24.1 km/h 96 % 0 mm 139 W/m2
07:11 2.8 °C 2.2 °C 1031.7 hPa North 12.9 km/h 20.9 km/h 96 % 0 mm 160 W/m2
07:16 2.9 °C 2.3 °C 1031.7 hPa North 12.9 km/h 22.5 km/h 96 % 0 mm 181 W/m2
07:21 3.1 °C 2.5 °C 1031.7 hPa NNE 12.9 km/h 22.5 km/h 96 % 0 mm 190 W/m2
07:26 3.3 °C 2.7 °C 1031.7 hPa NNE 11.3 km/h 22.5 km/h 96 % 0 mm 239 W/m2
07:31 3.4 °C 2.8 °C 1031.7 hPa NNE 11.3 km/h 19.3 km/h 96 % 0 mm 253 W/m2
07:36 3.6 °C 3 °C 1031.7 hPa North 12.9 km/h 20.9 km/h 96 % 0 mm 216 W/m2
07:41 3.8 °C 3.2 °C 1032.1 hPa NNE 11.3 km/h 20.9 km/h 96 % 0 mm 200 W/m2
07:46 3.9 °C 3.3 °C 1032.1 hPa NNE 6.4 km/h 17.7 km/h 96 % 0 mm 163 W/m2
07:51 4.1 °C 3.4 °C 1032.1 hPa NE 3.2 km/h 14.5 km/h 95 % 0 mm 178 W/m2
07:56 4.2 °C 3.4 °C 1032.1 hPa NE 1.6 km/h 9.7 km/h 95 % 0 mm 171 W/m2
08:06 4.6 °C 3.9 °C 1032.1 hPa NE 1.6 km/h 9.7 km/h 95 % 0 mm 199 W/m2
08:11 4.8 °C 3.9 °C 1032.4 hPa NE 1.6 km/h 9.7 km/h 94 % 0 mm 178 W/m2
08:16 4.9 °C 3.9 °C 1032.4 hPa NE 1.6 km/h 8 km/h 93 % 0 mm 174 W/m2
08:21 5 °C 3.9 °C 1032.4 hPa NE 3.2 km/h 11.3 km/h 93 % 0 mm 188 W/m2
08:26 5.1 °C 4.1 °C 1032.4 hPa NE 4.8 km/h 11.3 km/h 93 % 0 mm 267 W/m2
08:31 5.3 °C 4.1 °C 1032.4 hPa NE 4.8 km/h 11.3 km/h 92 % 0 mm 265 W/m2
08:36 5.6 °C 4.4 °C 1032.4 hPa NE 3.2 km/h 9.7 km/h 92 % 0 mm 309 W/m2
08:41 6 °C 4.7 °C 1032.7 hPa ENE 3.2 km/h 12.9 km/h 91 % 0 mm 388 W/m2
08:46 6.4 °C 4.9 °C 1032.7 hPa ENE 4.8 km/h 12.9 km/h 90 % 0 mm 399 W/m2
08:51 6.7 °C 4.7 °C 1032.7 hPa ENE 4.8 km/h 14.5 km/h 87 % 0 mm 415 W/m2
08:57 7 °C 5 °C 1032.7 hPa ENE 4.8 km/h 14.5 km/h 87 % 0 mm 429 W/m2
09:02 7.2 °C 4.7 °C 1032.7 hPa NE 4.8 km/h 12.9 km/h 84 % 0 mm 432 W/m2
09:07 7.2 °C 4.7 °C 1032.7 hPa NE 8 km/h 17.7 km/h 84 % 0 mm 434 W/m2
09:12 7.3 °C 4.6 °C 1032.7 hPa NNE 8 km/h 17.7 km/h 83 % 0 mm 461 W/m2
09:17 7.6 °C 4.9 °C 1032.7 hPa NE 6.4 km/h 14.5 km/h 83 % 0 mm 452 W/m2
09:22 7.8 °C 4.7 °C 1032.7 hPa NE 6.4 km/h 17.7 km/h 81 % 0 mm 485 W/m2
09:27 8.1 °C 4.7 °C 1033.1 hPa ENE 6.4 km/h 17.7 km/h 79 % 0 mm 501 W/m2
09:32 8.3 °C 4.7 °C 1033.1 hPa ENE 8 km/h 16.1 km/h 78 % 0 mm 510 W/m2
09:37 8.4 °C 4.8 °C 1033.1 hPa ENE 8 km/h 16.1 km/h 78 % 0 mm 519 W/m2
09:42 8.6 °C 4.4 °C 1033.1 hPa ENE 8 km/h 16.1 km/h 75 % 0 mm 529 W/m2
09:47 8.7 °C 4.7 °C 1033.1 hPa ENE 6.4 km/h 16.1 km/h 76 % 0 mm 541 W/m2
09:52 8.7 °C 4.5 °C 1033.1 hPa ENE 8 km/h 19.3 km/h 75 % 0 mm 555 W/m2
09:57 8.9 °C 4.7 °C 1033.4 hPa ENE 8 km/h 19.3 km/h 75 % 0 mm 561 W/m2
10:02 9.2 °C 4.8 °C 1033.1 hPa ENE 6.4 km/h 16.1 km/h 74 % 0 mm 570 W/m2
10:07 9.4 °C 4.6 °C 1033.1 hPa ENE 6.4 km/h 17.7 km/h 72 % 0 mm 582 W/m2
10:12 9.4 °C 4.6 °C 1033.4 hPa ENE 9.7 km/h 25.7 km/h 72 % 0 mm 587 W/m2
10:17 9.6 °C 4.8 °C 1033.1 hPa ENE 9.7 km/h 25.7 km/h 72 % 0 mm 603 W/m2
10:22 9.8 °C 5 °C 1033.4 hPa East 8 km/h 19.3 km/h 72 % 0 mm 608 W/m2
10:27 9.9 °C 5.1 °C 1033.4 hPa ENE 8 km/h 19.3 km/h 72 % 0 mm 628 W/m2
10:32 9.9 °C 5.1 °C 1033.7 hPa ENE 9.7 km/h 22.5 km/h 72 % 0 mm 631 W/m2
10:37 10 °C 5.4 °C 1033.7 hPa ENE 11.3 km/h 22.5 km/h 73 % 0 mm 656 W/m2
10:42 10 °C 5 °C 1033.4 hPa ENE 11.3 km/h 24.1 km/h 71 % 0 mm 696 W/m2
10:47 10.1 °C 5.1 °C 1033.7 hPa ENE 12.9 km/h 24.1 km/h 71 % 0 mm 668 W/m2
10:52 10.2 °C 4.8 °C 1033.4 hPa ENE 11.3 km/h 22.5 km/h 69 % 0 mm 664 W/m2
10:57 10.4 °C 4.6 °C 1033.7 hPa ENE 11.3 km/h 20.9 km/h 67 % 0 mm 656 W/m2
11:02 10.6 °C 4.3 °C 1033.7 hPa ENE 11.3 km/h 20.9 km/h 65 % 0 mm 657 W/m2
11:07 10.9 °C 4.6 °C 1033.4 hPa East 9.7 km/h 20.9 km/h 65 % 0 mm 656 W/m2
11:13 11.2 °C 4.6 °C 1033.4 hPa East 8 km/h 17.7 km/h 64 % 0 mm 671 W/m2
11:18 11.4 °C 5.1 °C 1033.4 hPa East 9.7 km/h 20.9 km/h 65 % 0 mm 663 W/m2
11:28 11.4 °C 4.8 °C 1033.4 hPa East 9.7 km/h 19.3 km/h 64 % 0 mm 657 W/m2
11:33 11.6 °C 4.3 °C 1033.1 hPa East 11.3 km/h 22.5 km/h 61 % 0 mm 675 W/m2
11:38 11.6 °C 4.3 °C 1033.1 hPa East 11.3 km/h 22.5 km/h 61 % 0 mm 686 W/m2
11:43 11.8 °C 3.6 °C 1033.1 hPa East 11.3 km/h 22.5 km/h 57 % 0 mm 684 W/m2
11:48 11.7 °C 3.4 °C 1033.1 hPa East 12.9 km/h 22.5 km/h 57 % 0 mm 668 W/m2
11:53 11.7 °C 3.2 °C 1033.1 hPa East 12.9 km/h 22.5 km/h 56 % 0 mm 663 W/m2
11:58 11.7 °C 2.9 °C 1033.1 hPa ESE 12.9 km/h 22.5 km/h 55 % 0 mm 680 W/m2
12:03 11.8 °C 3.6 °C 1033.1 hPa ESE 12.9 km/h 22.5 km/h 57 % 0 mm 666 W/m2
12:07 11.8 °C 3.8 °C 1033.1 hPa East 9.7 km/h 22.5 km/h 58 % 0 mm 687 W/m2
12:12 12 °C 3.7 °C 1033.1 hPa East 8 km/h 17.7 km/h 57 % 0 mm 684 W/m2
12:17 12.2 °C 3.4 °C 1033.1 hPa East 9.7 km/h 24.1 km/h 55 % 0 mm 693 W/m2
12:22 12.2 °C 3.2 °C 1033.1 hPa ESE 11.3 km/h 24.1 km/h 54 % 0 mm 700 W/m2
12:27 12.3 °C 3.2 °C 1033.1 hPa East 11.3 km/h 24.1 km/h 54 % 0 mm 689 W/m2
12:32 12.4 °C 3.6 °C 1033.1 hPa East 9.7 km/h 24.1 km/h 55 % 0 mm 687 W/m2
12:37 12.5 °C 2.3 °C 1033.1 hPa East 11.3 km/h 25.7 km/h 50 % 0 mm 642 W/m2
12:42 12.4 °C 1.9 °C 1033.1 hPa East 11.3 km/h 25.7 km/h 49 % 0 mm 652 W/m2
12:47 12.4 °C 1.9 °C 1033.1 hPa East 11.3 km/h 19.3 km/h 49 % 0 mm 670 W/m2
12:52 12.4 °C 2.6 °C 1033.1 hPa East 9.7 km/h 19.3 km/h 51 % 0 mm 664 W/m2
12:57 12.5 °C 3.4 °C 1033.1 hPa ENE 9.7 km/h 20.9 km/h 54 % 0 mm 673 W/m2
13:02 12.7 °C 2.8 °C 1033.1 hPa East 9.7 km/h 20.9 km/h 51 % 0 mm 642 W/m2
13:07 12.6 °C 2.2 °C 1033.1 hPa East 8 km/h 17.7 km/h 49 % 0 mm 656 W/m2
13:12 12.7 °C 1.4 °C 1033.1 hPa East 9.7 km/h 25.7 km/h 46 % 0 mm 663 W/m2
13:17 12.7 °C 1.7 °C 1033.4 hPa East 12.9 km/h 25.7 km/h 47 % 0 mm 650 W/m2
13:22 12.7 °C 1.4 °C 1033.4 hPa East 12.9 km/h 22.5 km/h 46 % 0 mm 654 W/m2
13:27 12.6 °C 1.9 °C 1033.4 hPa East 12.9 km/h 22.5 km/h 48 % 0 mm 650 W/m2
13:32 12.6 °C 1.9 °C 1033.4 hPa East 12.9 km/h 22.5 km/h 48 % 0 mm 650 W/m2
13:37 12.6 °C 2.2 °C 1033.4 hPa East 11.3 km/h 22.5 km/h 49 % 0 mm 645 W/m2
13:42 12.6 °C 1.6 °C 1033.4 hPa East 11.3 km/h 20.9 km/h 47 % 0 mm 635 W/m2
13:47 12.7 °C 2.2 °C 1033.4 hPa ESE 12.9 km/h 20.9 km/h 49 % 0 mm 629 W/m2
13:52 12.8 °C 2.3 °C 1033.1 hPa ESE 11.3 km/h 19.3 km/h 49 % 0 mm 626 W/m2
13:57 12.9 °C 1.8 °C 1033.1 hPa East 12.9 km/h 22.5 km/h 47 % 0 mm 564 W/m2
14:02 12.8 °C 2.1 °C 1033.1 hPa East 11.3 km/h 22.5 km/h 48 % 0 mm 608 W/m2
14:07 13 °C 1.6 °C 1033.1 hPa ENE 9.7 km/h 19.3 km/h 46 % 0 mm 605 W/m2
14:13 13 °C 1.6 °C 1033.1 hPa East 9.7 km/h 20.9 km/h 46 % 0 mm 601 W/m2
14:18 13.1 °C 1.7 °C 1033.1 hPa East 11.3 km/h 20.9 km/h 46 % 0 mm 594 W/m2
14:23 13 °C 1.9 °C 1032.7 hPa East 9.7 km/h 19.3 km/h 47 % 0 mm 578 W/m2
14:28 13.1 °C 1.7 °C 1032.7 hPa East 9.7 km/h 19.3 km/h 46 % 0 mm 557 W/m2
14:33 13.2 °C 1.8 °C 1032.7 hPa East 9.7 km/h 19.3 km/h 46 % 0 mm 555 W/m2
14:38 13.2 °C 2.1 °C 1032.7 hPa ENE 9.7 km/h 19.3 km/h 47 % 0 mm 552 W/m2
14:43 13.2 °C 2.1 °C 1032.7 hPa ENE 9.7 km/h 19.3 km/h 47 % 0 mm 524 W/m2
14:48 13.1 °C 2.3 °C 1032.7 hPa East 9.7 km/h 17.7 km/h 48 % 0 mm 519 W/m2
14:53 13.1 °C 2.9 °C 1032.7 hPa ENE 9.7 km/h 19.3 km/h 50 % 0 mm 510 W/m2
14:58 12.9 °C 2.7 °C 1032.7 hPa ENE 9.7 km/h 20.9 km/h 50 % 0 mm 496 W/m2
15:03 12.8 °C 2.9 °C 1032.7 hPa ENE 9.7 km/h 20.9 km/h 51 % 0 mm 492 W/m2
15:08 12.9 °C 2.4 °C 1032.7 hPa ENE 8 km/h 17.7 km/h 49 % 0 mm 489 W/m2
15:13 13.2 °C 3 °C 1032.7 hPa East 4.8 km/h 14.5 km/h 50 % 0 mm 441 W/m2
15:18 13.2 °C 2.4 °C 1032.7 hPa ENE 6.4 km/h 17.7 km/h 48 % 0 mm 434 W/m2
15:23 12.9 °C 2.2 °C 1032.7 hPa ENE 11.3 km/h 19.3 km/h 48 % 0 mm 434 W/m2
15:28 12.8 °C 2.6 °C 1032.7 hPa ENE 9.7 km/h 19.3 km/h 50 % 0 mm 425 W/m2
15:33 12.8 °C 1.8 °C 1033.1 hPa ENE 9.7 km/h 17.7 km/h 47 % 0 mm 417 W/m2
15:38 12.8 °C 1.4 °C 1033.1 hPa East 11.3 km/h 17.7 km/h 46 % 0 mm 408 W/m2
15:43 12.8 °C 1.4 °C 1033.1 hPa East 9.7 km/h 17.7 km/h 46 % 0 mm 403 W/m2
15:53 12.7 °C 3.3 °C 1033.1 hPa ENE 8 km/h 19.3 km/h 53 % 0 mm 394 W/m2
15:58 12.6 °C 3.3 °C 1032.7 hPa ENE 9.7 km/h 19.3 km/h 53 % 0 mm 387 W/m2
16:03 12.4 °C 3.3 °C 1032.7 hPa ENE 9.7 km/h 20.9 km/h 54 % 0 mm 338 W/m2
16:08 12.2 °C 2.9 °C 1032.7 hPa ENE 11.3 km/h 25.7 km/h 53 % 0 mm 251 W/m2
16:13 12.1 °C 2.8 °C 1032.7 hPa ENE 9.7 km/h 25.7 km/h 53 % 0 mm 352 W/m2
16:18 12.1 °C 3.3 °C 1032.7 hPa ENE 8 km/h 16.1 km/h 55 % 0 mm 301 W/m2
16:23 12.1 °C 3.3 °C 1033.1 hPa ENE 8 km/h 16.1 km/h 55 % 0 mm 155 W/m2
16:28 11.8 °C 3.1 °C 1033.1 hPa ENE 9.7 km/h 16.1 km/h 55 % 0 mm 255 W/m2
16:29 11.8 °C 3.1 °C 1033.1 hPa ENE 8 km/h 16.1 km/h 55 % 0 mm 265 W/m2
16:34 11.7 °C 2.9 °C 1033.1 hPa ENE 8 km/h 16.1 km/h 55 % 0 mm 128 W/m2
16:35 11.7 °C 3.2 °C 1032.7 hPa ENE 8 km/h 16.1 km/h 56 % 0 mm 95 W/m2
16:40 11.5 °C 3 °C 1033.1 hPa East 6.4 km/h 16.1 km/h 56 % 0 mm 141 W/m2
16:45 11.4 °C 2.9 °C 1033.1 hPa East 6.4 km/h 16.1 km/h 56 % 0 mm 229 W/m2
16:50 11.5 °C 3 °C 1033.1 hPa East 6.4 km/h 14.5 km/h 56 % 0 mm 216 W/m2
16:55 11.5 °C 2.8 °C 1033.1 hPa East 8 km/h 16.1 km/h 55 % 0 mm 192 W/m2
17:00 11.5 °C 2.5 °C 1033.1 hPa East 6.4 km/h 16.1 km/h 54 % 0 mm 186 W/m2
17:05 11.4 °C 2.4 °C 1033.1 hPa ENE 8 km/h 17.7 km/h 54 % 0 mm 172 W/m2
17:10 11.3 °C 2.1 °C 1033.1 hPa ENE 9.7 km/h 17.7 km/h 53 % 0 mm 158 W/m2
17:15 11.2 °C 1.4 °C 1033.4 hPa East 9.7 km/h 19.3 km/h 51 % 0 mm 144 W/m2
17:20 11.1 °C 1.6 °C 1033.4 hPa East 8 km/h 19.3 km/h 52 % 0 mm 125 W/m2
17:25 10.9 °C 1.2 °C 1033.4 hPa ENE 8 km/h 17.7 km/h 51 % 0 mm 107 W/m2
17:30 10.8 °C 1.3 °C 1033.4 hPa ENE 8 km/h 17.7 km/h 52 % 0 mm 70 W/m2
17:35 10.6 °C 1.4 °C 1033.4 hPa East 6.4 km/h 14.5 km/h 53 % 0 mm 37 W/m2
17:40 10.4 °C 1.5 °C 1033.4 hPa ENE 6.4 km/h 14.5 km/h 54 % 0 mm 25 W/m2
17:45 10.2 °C 1.6 °C 1033.4 hPa ENE 4.8 km/h 14.5 km/h 55 % 0 mm 30 W/m2
17:50 10 °C 1.6 °C 1033.4 hPa East 3.2 km/h 12.9 km/h 56 % 0 mm 42 W/m2
17:55 9.9 °C 2 °C 1033.4 hPa East 4.8 km/h 11.3 km/h 58 % 0 mm 44 W/m2
18:00 9.8 °C 2.2 °C 1033.4 hPa East 4.8 km/h 11.3 km/h 59 % 0 mm 28 W/m2
18:10 9.5 °C 2.1 °C 1033.7 hPa ENE 4.8 km/h 12.9 km/h 60 % 0 mm 16 W/m2
18:15 9.3 °C 2.2 °C 1033.7 hPa ENE 4.8 km/h 11.3 km/h 61 % 0 mm 14 W/m2
18:20 9.2 °C 2.3 °C 1033.7 hPa ENE 3.2 km/h 11.3 km/h 62 % 0 mm 11 W/m2
18:25 9 °C 2.1 °C 1033.7 hPa ENE 3.2 km/h 11.3 km/h 62 % 0 mm 5 W/m2
18:30 8.8 °C 1.9 °C 1033.7 hPa ENE 4.8 km/h 11.3 km/h 62 % 0 mm 0 W/m2
18:36 8.7 °C 2.1 °C 1033.7 hPa ENE 4.8 km/h 11.3 km/h 63 % 0 mm 0 W/m2
18:41 8.6 °C 2.2 °C 1034.1 hPa ENE 3.2 km/h 9.7 km/h 64 % 0 mm 0 W/m2
18:46 8.4 °C 2.2 °C 1034.1 hPa ENE 1.6 km/h 9.7 km/h 65 % 0 mm 0 W/m2
18:51 8.2 °C 1.8 °C 1034.1 hPa ENE 3.2 km/h 12.9 km/h 64 % 0 mm 0 W/m2
18:56 8.1 °C 1.5 °C 1034.1 hPa ENE 4.8 km/h 12.9 km/h 63 % 0 mm 0 W/m2
19:01 8 °C 1.4 °C 1034.1 hPa ENE 4.8 km/h 12.9 km/h 63 % 0 mm 0 W/m2
19:06 7.9 °C 1.3 °C 1034.1 hPa ENE 3.2 km/h 9.7 km/h 63 % 0 mm 0 W/m2
19:11 7.8 °C 1.4 °C 1034.4 hPa ENE 1.6 km/h 9.7 km/h 64 % 0 mm 0 W/m2
19:16 7.7 °C 1.6 °C 1034.4 hPa Calm   6.4 km/h 65 % 0 mm 0 W/m2
19:26 7.3 °C 1.2 °C 1034.8 hPa East 1.6 km/h 8 km/h 65 % 0 mm 0 W/m2
19:31 7.2 °C 1.3 °C 1034.8 hPa ENE 1.6 km/h 8 km/h 66 % 0 mm 0 W/m2
19:36 7.1 °C 1.4 °C 1034.8 hPa Calm   8 km/h 67 % 0 mm 0 W/m2
19:41 6.9 °C 1.2 °C 1034.8 hPa Calm   8 km/h 67 % 0 mm 0 W/m2
19:46 6.8 °C 1.3 °C 1034.8 hPa Calm   3.2 km/h 68 % 0 mm 0 W/m2
19:51 6.6 °C 1.3 °C 1034.8 hPa Calm     69 % 0 mm 0 W/m2
19:56 6.4 °C 1.3 °C 1034.8 hPa Calm     70 % 0 mm 0 W/m2
20:01 6.2 °C 1.3 °C 1034.8 hPa Calm     71 % 0 mm 0 W/m2
20:02 6.2 °C 1.3 °C 1035.1 hPa Calm     71 % 0 mm 0 W/m2
20:07 6 °C 1.3 °C 1035.1 hPa Calm     72 % 0 mm 0 W/m2
20:12 5.8 °C 1.1 °C 1035.1 hPa Calm     72 % 0 mm 0 W/m2
20:17 5.6 °C 1.1 °C 1035.1 hPa Calm     73 % 0 mm 0 W/m2
20:22 5.3 °C 0.8 °C 1035.4 hPa Calm     73 % 0 mm 0 W/m2
20:27 5.1 °C 0.8 °C 1035.4 hPa Calm     74 % 0 mm 0 W/m2
20:32 4.9 °C 0.8 °C 1035.4 hPa Calm     75 % 0 mm 0 W/m2
20:37 4.7 °C 0.8 °C 1035.4 hPa Calm     76 % 0 mm 0 W/m2
20:42 4.6 °C 0.9 °C 1035.4 hPa Calm     77 % 0 mm 0 W/m2
20:47 4.4 °C 0.7 °C 1035.4 hPa Calm     77 % 0 mm 0 W/m2
20:52 4.3 °C 0.8 °C 1035.4 hPa Calm     78 % 0 mm 0 W/m2
20:57 4.2 °C 0.9 °C 1035.4 hPa Calm     79 % 0 mm 0 W/m2
21:02 4 °C 0.7 °C 1035.4 hPa Calm     79 % 0 mm 0 W/m2
21:07 3.8 °C 0.7 °C 1035.4 hPa Calm     80 % 0 mm 0 W/m2
21:12 3.6 °C 0.7 °C 1035.4 hPa Calm     81 % 0 mm 0 W/m2
21:17 3.5 °C 0.7 °C 1035.4 hPa Calm     82 % 0 mm 0 W/m2
21:22 3.3 °C 0.5 °C 1035.8 hPa Calm     82 % 0 mm 0 W/m2
21:23 3.3 °C 0.5 °C 1035.8 hPa Calm     82 % 0 mm 0 W/m2
21:28 3.2 °C 0.4 °C 1035.8 hPa Calm   3.2 km/h 82 % 0 mm 0 W/m2
21:38 3.1 °C 0.7 °C 1035.8 hPa ENE 1.6 km/h 6.4 km/h 84 % 0 mm 0 W/m2
21:43 3 °C 0.6 °C 1035.8 hPa Calm   3.2 km/h 84 % 0 mm 0 W/m2
21:48 2.9 °C 0.4 °C 1035.8 hPa Calm     84 % 0 mm 0 W/m2
21:53 2.8 °C 0.4 °C 1036.1 hPa Calm     84 % 0 mm 0 W/m2
21:58 2.7 °C 0.3 °C 1036.1 hPa Calm     84 % 0 mm 0 W/m2
22:03 2.6 °C 0.3 °C 1036.1 hPa Calm     85 % 0 mm 0 W/m2
22:08 2.5 °C 0.2 °C 1036.1 hPa Calm     85 % 0 mm 0 W/m2
22:13 2.3 °C 0.1 °C 1036.1 hPa Calm     85 % 0 mm 0 W/m2
22:18 2.3 °C 0.2 °C 1036.1 hPa Calm     86 % 0 mm 0 W/m2
22:23 2.3 °C 0.2 °C 1036.1 hPa Calm     86 % 0 mm 0 W/m2
22:28 2.2 °C 0.1 °C 1036.1 hPa Calm     86 % 0 mm 0 W/m2
22:33 2.1 °C 0 °C 1036.1 hPa Calm     86 % 0 mm 0 W/m2
22:35 2 °C -0.1 °C 1036.1 hPa Calm     86 % 0 mm 0 W/m2
22:40 2 °C 0.1 °C 1035.8 hPa Calm     87 % 0 mm 0 W/m2
22:45 1.8 °C -0.3 °C 1035.8 hPa Calm     86 % 0 mm 0 W/m2
22:50 1.7 °C -0.4 °C 1035.8 hPa Calm     86 % 0 mm 0 W/m2
22:55 1.6 °C -0.3 °C 1035.8 hPa Calm     87 % 0 mm 0 W/m2
23:00 1.4 °C -0.6 °C 1036.1 hPa Calm     87 % 0 mm 0 W/m2
23:05 1.3 °C -0.6 °C 1035.8 hPa Calm     87 % 0 mm 0 W/m2
23:10 1.2 °C -0.6 °C 1035.8 hPa Calm     88 % 0 mm 0 W/m2
23:15 1.1 °C -0.7 °C 1036.1 hPa Calm     88 % 0 mm 0 W/m2
23:20 1.1 °C -0.7 °C 1035.8 hPa Calm     88 % 0 mm 0 W/m2
23:25 1 °C -0.8 °C 1035.8 hPa Calm     88 % 0 mm 0 W/m2
23:30 0.9 °C -0.9 °C 1035.8 hPa Calm     88 % 0 mm 0 W/m2
23:35 0.9 °C -0.7 °C 1035.8 hPa Calm     89 % 0 mm 0 W/m2
23:45 0.7 °C -0.9 °C 1035.8 hPa Calm     89 % 0 mm 0 W/m2
23:50 0.7 °C -0.8 °C 1035.8 hPa Calm     90 % 0 mm 0 W/m2
23:55 0.7 °C -0.9 °C 1036.1 hPa Calm     89 % 0 mm 0 W/m2
Delerius-Weather
Compliments of Weather Underground - 2.25 mb

Data updates at regular intervals.